sensor_id;sensor_type;location;lat;lon;timestamp;temperature;humidity
4874;DHT22;2451;49.970;9.068;2024-02-21T00:01:22;8.20;99.90
4874;DHT22;2451;49.970;9.068;2024-02-21T00:03:48;8.20;99.90
4874;DHT22;2451;49.970;9.068;2024-02-21T00:06:13;8.20;99.90
4874;DHT22;2451;49.970;9.068;2024-02-21T00:08:39;8.20;99.90
4874;DHT22;2451;49.970;9.068;2024-02-21T00:11:05;8.20;99.90
4874;DHT22;2451;49.970;9.068;2024-02-21T00:13:30;8.20;99.90
4874;DHT22;2451;49.970;9.068;2024-02-21T00:15:56;8.20;99.90
4874;DHT22;2451;49.970;9.068;2024-02-21T00:18:21;8.20;99.90
4874;DHT22;2451;49.970;9.068;2024-02-21T00:20:47;8.30;99.90
4874;DHT22;2451;49.970;9.068;2024-02-21T00:23:12;8.30;99.90
4874;DHT22;2451;49.970;9.068;2024-02-21T00:25:38;8.30;99.90
4874;DHT22;2451;49.970;9.068;2024-02-21T00:28:04;8.30;99.90
4874;DHT22;2451;49.970;9.068;2024-02-21T00:30:31;8.40;99.90
4874;DHT22;2451;49.970;9.068;2024-02-21T00:32:56;8.40;99.90
4874;DHT22;2451;49.970;9.068;2024-02-21T00:35:22;8.40;99.90
4874;DHT22;2451;49.970;9.068;2024-02-21T00:37:47;8.30;99.90
4874;DHT22;2451;49.970;9.068;2024-02-21T00:40:13;8.30;99.90
4874;DHT22;2451;49.970;9.068;2024-02-21T00:42:41;8.30;99.90
4874;DHT22;2451;49.970;9.068;2024-02-21T00:45:07;8.30;99.90
4874;DHT22;2451;49.970;9.068;2024-02-21T00:47:33;8.30;99.90
4874;DHT22;2451;49.970;9.068;2024-02-21T00:49:59;8.30;99.90
4874;DHT22;2451;49.970;9.068;2024-02-21T00:52:24;8.30;99.90
4874;DHT22;2451;49.970;9.068;2024-02-21T00:54:50;8.20;99.90
4874;DHT22;2451;49.970;9.068;2024-02-21T00:57:15;8.20;99.90
4874;DHT22;2451;49.970;9.068;2024-02-21T00:59:41;8.20;99.90
4874;DHT22;2451;49.970;9.068;2024-02-21T01:02:07;8.20;99.90
4874;DHT22;2451;49.970;9.068;2024-02-21T01:04:32;8.20;99.90
4874;DHT22;2451;49.970;9.068;2024-02-21T01:06:58;8.10;99.90
4874;DHT22;2451;49.970;9.068;2024-02-21T01:09:23;8.10;99.90
4874;DHT22;2451;49.970;9.068;2024-02-21T01:11:49;8.10;99.90
4874;DHT22;2451;49.970;9.068;2024-02-21T01:14:14;8.10;99.90
4874;DHT22;2451;49.970;9.068;2024-02-21T01:16:40;8.10;99.90
4874;DHT22;2451;49.970;9.068;2024-02-21T01:19:06;8.00;99.90
4874;DHT22;2451;49.970;9.068;2024-02-21T01:21:31;8.00;99.90
4874;DHT22;2451;49.970;9.068;2024-02-21T01:23:57;7.90;99.90
4874;DHT22;2451;49.970;9.068;2024-02-21T01:26:22;7.90;99.90
4874;DHT22;2451;49.970;9.068;2024-02-21T01:28:48;7.90;99.90
4874;DHT22;2451;49.970;9.068;2024-02-21T01:31:13;7.90;99.90
4874;DHT22;2451;49.970;9.068;2024-02-21T01:33:40;7.90;99.90
4874;DHT22;2451;49.970;9.068;2024-02-21T01:36:06;7.90;99.90
4874;DHT22;2451;49.970;9.068;2024-02-21T01:38:32;8.00;99.90
4874;DHT22;2451;49.970;9.068;2024-02-21T01:40:58;8.00;99.90
4874;DHT22;2451;49.970;9.068;2024-02-21T01:43:23;8.00;99.90
4874;DHT22;2451;49.970;9.068;2024-02-21T01:45:50;8.00;99.90
4874;DHT22;2451;49.970;9.068;2024-02-21T01:48:21;8.00;99.90
4874;DHT22;2451;49.970;9.068;2024-02-21T01:50:49;8.00;99.90
4874;DHT22;2451;49.970;9.068;2024-02-21T01:53:22;8.00;99.90
4874;DHT22;2451;49.970;9.068;2024-02-21T01:55:48;8.00;99.90
4874;DHT22;2451;49.970;9.068;2024-02-21T01:58:15;8.00;99.90
4874;DHT22;2451;49.970;9.068;2024-02-21T02:00:42;8.00;99.90
4874;DHT22;2451;49.970;9.068;2024-02-21T02:03:12;8.00;99.90
4874;DHT22;2451;49.970;9.068;2024-02-21T02:08:10;7.90;99.90
4874;DHT22;2451;49.970;9.068;2024-02-21T02:10:37;7.90;99.90
4874;DHT22;2451;49.970;9.068;2024-02-21T02:13:02;7.80;99.90
4874;DHT22;2451;49.970;9.068;2024-02-21T02:15:38;7.80;99.90
4874;DHT22;2451;49.970;9.068;2024-02-21T02:18:03;7.80;99.90
4874;DHT22;2451;49.970;9.068;2024-02-21T02:20:29;7.80;99.90
4874;DHT22;2451;49.970;9.068;2024-02-21T02:22:54;7.80;99.90
4874;DHT22;2451;49.970;9.068;2024-02-21T02:25:20;7.80;99.90
4874;DHT22;2451;49.970;9.068;2024-02-21T02:27:46;7.80;99.90
4874;DHT22;2451;49.970;9.068;2024-02-21T02:30:12;7.80;99.90
4874;DHT22;2451;49.970;9.068;2024-02-21T02:32:37;7.80;99.90
4874;DHT22;2451;49.970;9.068;2024-02-21T02:35:03;7.80;99.90
4874;DHT22;2451;49.970;9.068;2024-02-21T02:37:29;7.80;99.90
4874;DHT22;2451;49.970;9.068;2024-02-21T02:39:55;7.80;99.90
4874;DHT22;2451;49.970;9.068;2024-02-21T02:42:20;7.80;99.90
4874;DHT22;2451;49.970;9.068;2024-02-21T02:44:46;7.80;99.90
4874;DHT22;2451;49.970;9.068;2024-02-21T02:47:12;7.70;99.90
4874;DHT22;2451;49.970;9.068;2024-02-21T02:49:37;7.80;99.90
4874;DHT22;2451;49.970;9.068;2024-02-21T02:52:03;7.80;99.90
4874;DHT22;2451;49.970;9.068;2024-02-21T02:54:29;7.80;99.90
4874;DHT22;2451;49.970;9.068;2024-02-21T02:56:54;7.80;99.90
4874;DHT22;2451;49.970;9.068;2024-02-21T02:59:19;7.70;99.90
4874;DHT22;2451;49.970;9.068;2024-02-21T03:01:45;7.70;99.90
4874;DHT22;2451;49.970;9.068;2024-02-21T03:04:11;7.70;99.90
4874;DHT22;2451;49.970;9.068;2024-02-21T03:06:36;7.70;99.90
4874;DHT22;2451;49.970;9.068;2024-02-21T03:09:02;7.70;99.90
4874;DHT22;2451;49.970;9.068;2024-02-21T03:11:33;7.70;99.90
4874;DHT22;2451;49.970;9.068;2024-02-21T03:13:59;7.60;99.90
4874;DHT22;2451;49.970;9.068;2024-02-21T03:16:25;7.70;99.90
4874;DHT22;2451;49.970;9.068;2024-02-21T03:18:50;7.60;99.90
4874;DHT22;2451;49.970;9.068;2024-02-21T03:21:16;7.70;99.90
4874;DHT22;2451;49.970;9.068;2024-02-21T03:23:41;7.60;99.90
4874;DHT22;2451;49.970;9.068;2024-02-21T03:26:07;7.60;99.90
4874;DHT22;2451;49.970;9.068;2024-02-21T03:28:32;7.60;99.90
4874;DHT22;2451;49.970;9.068;2024-02-21T03:30:58;7.60;99.90
4874;DHT22;2451;49.970;9.068;2024-02-21T03:33:23;7.60;99.90
4874;DHT22;2451;49.970;9.068;2024-02-21T03:35:49;7.50;99.90
4874;DHT22;2451;49.970;9.068;2024-02-21T03:38:14;7.60;99.90
4874;DHT22;2451;49.970;9.068;2024-02-21T03:40:40;7.50;99.90
4874;DHT22;2451;49.970;9.068;2024-02-21T03:43:05;7.50;99.90
4874;DHT22;2451;49.970;9.068;2024-02-21T03:45:31;7.50;99.90
4874;DHT22;2451;49.970;9.068;2024-02-21T03:47:56;7.40;99.90
4874;DHT22;2451;49.970;9.068;2024-02-21T03:50:22;7.30;99.90
4874;DHT22;2451;49.970;9.068;2024-02-21T03:52:47;7.20;99.90
4874;DHT22;2451;49.970;9.068;2024-02-21T03:55:13;7.20;99.90
4874;DHT22;2451;49.970;9.068;2024-02-21T03:57:38;7.10;99.90
4874;DHT22;2451;49.970;9.068;2024-02-21T04:00:05;7.10;99.90
4874;DHT22;2451;49.970;9.068;2024-02-21T04:02:34;7.10;99.90
4874;DHT22;2451;49.970;9.068;2024-02-21T04:04:59;7.00;99.90
4874;DHT22;2451;49.970;9.068;2024-02-21T04:07:25;7.00;99.90
4874;DHT22;2451;49.970;9.068;2024-02-21T04:09:50;7.00;99.90
4874;DHT22;2451;49.970;9.068;2024-02-21T04:12:15;7.00;99.90
4874;DHT22;2451;49.970;9.068;2024-02-21T04:14:41;7.00;99.90
4874;DHT22;2451;49.970;9.068;2024-02-21T04:17:06;7.00;99.90
4874;DHT22;2451;49.970;9.068;2024-02-21T04:19:32;7.00;99.90
4874;DHT22;2451;49.970;9.068;2024-02-21T04:21:59;7.00;99.90
4874;DHT22;2451;49.970;9.068;2024-02-21T04:24:24;7.00;99.90
4874;DHT22;2451;49.970;9.068;2024-02-21T04:26:50;7.00;99.90
4874;DHT22;2451;49.970;9.068;2024-02-21T04:29:16;7.00;99.90
4874;DHT22;2451;49.970;9.068;2024-02-21T04:31:41;7.00;99.90
4874;DHT22;2451;49.970;9.068;2024-02-21T04:34:07;7.00;99.90
4874;DHT22;2451;49.970;9.068;2024-02-21T04:36:32;7.00;99.90
4874;DHT22;2451;49.970;9.068;2024-02-21T04:38:58;7.00;99.90
4874;DHT22;2451;49.970;9.068;2024-02-21T04:41:24;6.90;99.90
4874;DHT22;2451;49.970;9.068;2024-02-21T04:43:49;6.90;99.90
4874;DHT22;2451;49.970;9.068;2024-02-21T04:46:15;6.90;99.90
4874;DHT22;2451;49.970;9.068;2024-02-21T04:48:41;6.90;99.90
4874;DHT22;2451;49.970;9.068;2024-02-21T04:51:06;6.90;99.90
4874;DHT22;2451;49.970;9.068;2024-02-21T04:53:32;6.90;99.90
4874;DHT22;2451;49.970;9.068;2024-02-21T04:55:57;7.00;99.90
4874;DHT22;2451;49.970;9.068;2024-02-21T04:58:23;6.90;99.90
4874;DHT22;2451;49.970;9.068;2024-02-21T05:00:49;7.00;99.90
4874;DHT22;2451;49.970;9.068;2024-02-21T05:03:14;6.90;99.90
4874;DHT22;2451;49.970;9.068;2024-02-21T05:05:40;6.90;99.90
4874;DHT22;2451;49.970;9.068;2024-02-21T05:08:05;6.90;99.90
4874;DHT22;2451;49.970;9.068;2024-02-21T05:10:31;6.90;99.90
4874;DHT22;2451;49.970;9.068;2024-02-21T05:12:57;6.90;99.90
4874;DHT22;2451;49.970;9.068;2024-02-21T05:15:23;6.90;99.90
4874;DHT22;2451;49.970;9.068;2024-02-21T05:17:48;6.90;99.90
4874;DHT22;2451;49.970;9.068;2024-02-21T05:20:14;6.90;99.90
4874;DHT22;2451;49.970;9.068;2024-02-21T05:22:39;6.90;99.90
4874;DHT22;2451;49.970;9.068;2024-02-21T05:25:05;6.90;99.90
4874;DHT22;2451;49.970;9.068;2024-02-21T05:27:31;6.90;99.90
4874;DHT22;2451;49.970;9.068;2024-02-21T05:29:56;6.90;99.90
4874;DHT22;2451;49.970;9.068;2024-02-21T05:32:23;6.90;99.90
4874;DHT22;2451;49.970;9.068;2024-02-21T05:34:50;6.90;99.90
4874;DHT22;2451;49.970;9.068;2024-02-21T05:37:16;6.90;99.90
4874;DHT22;2451;49.970;9.068;2024-02-21T05:39:41;6.90;99.90
4874;DHT22;2451;49.970;9.068;2024-02-21T05:42:07;6.90;99.90
4874;DHT22;2451;49.970;9.068;2024-02-21T05:44:32;6.90;99.90
4874;DHT22;2451;49.970;9.068;2024-02-21T05:46:58;6.90;99.90
4874;DHT22;2451;49.970;9.068;2024-02-21T05:49:23;6.90;99.90
4874;DHT22;2451;49.970;9.068;2024-02-21T05:51:49;6.90;99.90
4874;DHT22;2451;49.970;9.068;2024-02-21T05:54:14;6.90;99.90
4874;DHT22;2451;49.970;9.068;2024-02-21T05:56:47;6.90;99.90
4874;DHT22;2451;49.970;9.068;2024-02-21T05:59:12;6.80;99.90
4874;DHT22;2451;49.970;9.068;2024-02-21T06:01:38;6.80;99.90
4874;DHT22;2451;49.970;9.068;2024-02-21T06:04:03;6.80;99.90
4874;DHT22;2451;49.970;9.068;2024-02-21T06:06:29;6.80;99.90
4874;DHT22;2451;49.970;9.068;2024-02-21T06:08:55;6.80;99.90
4874;DHT22;2451;49.970;9.068;2024-02-21T06:11:21;6.80;99.90
4874;DHT22;2451;49.970;9.068;2024-02-21T06:13:46;6.80;99.90
4874;DHT22;2451;49.970;9.068;2024-02-21T06:16:12;6.90;99.90
4874;DHT22;2451;49.970;9.068;2024-02-21T06:18:38;6.90;99.90
4874;DHT22;2451;49.970;9.068;2024-02-21T06:21:04;6.90;99.90
4874;DHT22;2451;49.970;9.068;2024-02-21T06:23:29;6.90;99.90
4874;DHT22;2451;49.970;9.068;2024-02-21T06:25:55;6.90;99.90
4874;DHT22;2451;49.970;9.068;2024-02-21T06:28:20;6.90;99.90
4874;DHT22;2451;49.970;9.068;2024-02-21T06:30:46;6.90;99.90
4874;DHT22;2451;49.970;9.068;2024-02-21T06:33:11;6.90;99.90
4874;DHT22;2451;49.970;9.068;2024-02-21T06:35:37;6.90;99.90
4874;DHT22;2451;49.970;9.068;2024-02-21T06:38:06;6.90;99.90
4874;DHT22;2451;49.970;9.068;2024-02-21T06:40:32;7.00;99.90
4874;DHT22;2451;49.970;9.068;2024-02-21T06:43:03;6.90;99.90
4874;DHT22;2451;49.970;9.068;2024-02-21T06:45:29;6.90;99.90
4874;DHT22;2451;49.970;9.068;2024-02-21T06:47:54;6.90;99.90
4874;DHT22;2451;49.970;9.068;2024-02-21T06:50:20;6.90;99.90
4874;DHT22;2451;49.970;9.068;2024-02-21T06:52:46;6.90;99.90
4874;DHT22;2451;49.970;9.068;2024-02-21T06:55:11;7.00;99.90
4874;DHT22;2451;49.970;9.068;2024-02-21T06:57:37;7.00;99.90
4874;DHT22;2451;49.970;9.068;2024-02-21T07:00:02;7.00;99.90
4874;DHT22;2451;49.970;9.068;2024-02-21T07:02:28;7.10;99.90
4874;DHT22;2451;49.970;9.068;2024-02-21T07:04:53;7.00;99.90
4874;DHT22;2451;49.970;9.068;2024-02-21T07:07:19;7.00;99.90
4874;DHT22;2451;49.970;9.068;2024-02-21T07:09:44;7.10;99.90
4874;DHT22;2451;49.970;9.068;2024-02-21T07:12:13;7.10;99.90
4874;DHT22;2451;49.970;9.068;2024-02-21T07:14:39;7.20;99.90
4874;DHT22;2451;49.970;9.068;2024-02-21T07:17:04;7.20;99.90
4874;DHT22;2451;49.970;9.068;2024-02-21T07:19:30;7.30;99.90
4874;DHT22;2451;49.970;9.068;2024-02-21T07:21:55;7.50;99.90
4874;DHT22;2451;49.970;9.068;2024-02-21T07:24:22;7.50;99.90
4874;DHT22;2451;49.970;9.068;2024-02-21T07:26:47;7.90;99.90
4874;DHT22;2451;49.970;9.068;2024-02-21T07:29:13;8.30;99.90
4874;DHT22;2451;49.970;9.068;2024-02-21T07:31:42;8.70;99.90
4874;DHT22;2451;49.970;9.068;2024-02-21T07:34:08;9.10;99.90
4874;DHT22;2451;49.970;9.068;2024-02-21T07:36:34;9.50;99.90
4874;DHT22;2451;49.970;9.068;2024-02-21T07:38:59;9.80;99.90
4874;DHT22;2451;49.970;9.068;2024-02-21T07:41:25;10.30;99.90
4874;DHT22;2451;49.970;9.068;2024-02-21T07:43:51;11.00;99.90
4874;DHT22;2451;49.970;9.068;2024-02-21T07:46:17;11.60;99.90
4874;DHT22;2451;49.970;9.068;2024-02-21T07:48:44;12.00;99.90
4874;DHT22;2451;49.970;9.068;2024-02-21T07:51:10;12.30;99.90
4874;DHT22;2451;49.970;9.068;2024-02-21T07:53:35;12.30;99.90
4874;DHT22;2451;49.970;9.068;2024-02-21T07:56:01;12.20;99.90
4874;DHT22;2451;49.970;9.068;2024-02-21T07:58:26;12.00;99.90
4874;DHT22;2451;49.970;9.068;2024-02-21T08:00:52;11.90;99.90
4874;DHT22;2451;49.970;9.068;2024-02-21T08:03:17;11.60;99.90
4874;DHT22;2451;49.970;9.068;2024-02-21T08:05:43;11.40;99.90
4874;DHT22;2451;49.970;9.068;2024-02-21T08:08:09;11.30;99.90
4874;DHT22;2451;49.970;9.068;2024-02-21T08:10:34;11.20;99.90
4874;DHT22;2451;49.970;9.068;2024-02-21T08:13:00;11.20;99.90
4874;DHT22;2451;49.970;9.068;2024-02-21T08:15:25;11.30;99.90
4874;DHT22;2451;49.970;9.068;2024-02-21T08:17:55;11.40;99.90
4874;DHT22;2451;49.970;9.068;2024-02-21T08:20:24;11.30;99.90
4874;DHT22;2451;49.970;9.068;2024-02-21T08:22:49;11.10;99.90
4874;DHT22;2451;49.970;9.068;2024-02-21T08:25:15;11.00;99.90
4874;DHT22;2451;49.970;9.068;2024-02-21T08:27:40;10.90;99.90
4874;DHT22;2451;49.970;9.068;2024-02-21T08:30:06;10.80;99.90
4874;DHT22;2451;49.970;9.068;2024-02-21T08:32:34;10.80;99.90
4874;DHT22;2451;49.970;9.068;2024-02-21T08:35:01;10.70;99.90
4874;DHT22;2451;49.970;9.068;2024-02-21T08:37:27;10.70;99.90
4874;DHT22;2451;49.970;9.068;2024-02-21T08:39:53;10.40;99.90
4874;DHT22;2451;49.970;9.068;2024-02-21T08:42:18;10.40;99.90
4874;DHT22;2451;49.970;9.068;2024-02-21T08:44:44;10.30;99.90
4874;DHT22;2451;49.970;9.068;2024-02-21T08:47:10;10.20;99.90
4874;DHT22;2451;49.970;9.068;2024-02-21T08:49:36;10.00;99.90
4874;DHT22;2451;49.970;9.068;2024-02-21T08:52:02;9.90;99.90
4874;DHT22;2451;49.970;9.068;2024-02-21T08:54:28;9.90;99.90
4874;DHT22;2451;49.970;9.068;2024-02-21T08:56:54;9.80;99.90
4874;DHT22;2451;49.970;9.068;2024-02-21T08:59:20;9.80;99.90
4874;DHT22;2451;49.970;9.068;2024-02-21T09:01:46;9.70;99.90
4874;DHT22;2451;49.970;9.068;2024-02-21T09:04:11;9.70;99.90
4874;DHT22;2451;49.970;9.068;2024-02-21T09:06:37;9.80;99.90
4874;DHT22;2451;49.970;9.068;2024-02-21T09:09:07;9.80;99.90
4874;DHT22;2451;49.970;9.068;2024-02-21T09:11:34;9.80;99.90
4874;DHT22;2451;49.970;9.068;2024-02-21T09:13:59;9.90;99.90
4874;DHT22;2451;49.970;9.068;2024-02-21T09:16:25;9.90;99.90
4874;DHT22;2451;49.970;9.068;2024-02-21T09:18:50;9.90;99.90
4874;DHT22;2451;49.970;9.068;2024-02-21T09:21:16;10.00;99.90
4874;DHT22;2451;49.970;9.068;2024-02-21T09:23:41;10.10;99.90
4874;DHT22;2451;49.970;9.068;2024-02-21T09:26:07;10.20;99.90
4874;DHT22;2451;49.970;9.068;2024-02-21T09:28:35;10.20;99.90
4874;DHT22;2451;49.970;9.068;2024-02-21T09:31:01;10.10;99.90
4874;DHT22;2451;49.970;9.068;2024-02-21T09:33:27;10.10;99.90
4874;DHT22;2451;49.970;9.068;2024-02-21T09:35:52;10.10;99.90
4874;DHT22;2451;49.970;9.068;2024-02-21T09:38:18;10.10;99.90
4874;DHT22;2451;49.970;9.068;2024-02-21T09:40:44;10.10;99.90
4874;DHT22;2451;49.970;9.068;2024-02-21T09:43:09;10.30;99.90
4874;DHT22;2451;49.970;9.068;2024-02-21T09:45:35;10.30;99.90
4874;DHT22;2451;49.970;9.068;2024-02-21T09:50:56;10.50;99.90
4874;DHT22;2451;49.970;9.068;2024-02-21T09:53:24;10.70;99.90
4874;DHT22;2451;49.970;9.068;2024-02-21T09:55:50;10.80;99.90
4874;DHT22;2451;49.970;9.068;2024-02-21T09:58:16;10.80;99.90
4874;DHT22;2451;49.970;9.068;2024-02-21T10:00:42;10.80;99.90
4874;DHT22;2451;49.970;9.068;2024-02-21T10:03:07;10.90;99.90
4874;DHT22;2451;49.970;9.068;2024-02-21T10:05:35;11.00;99.90
4874;DHT22;2451;49.970;9.068;2024-02-21T10:08:01;11.20;99.90
4874;DHT22;2451;49.970;9.068;2024-02-21T10:10:26;11.30;99.90
4874;DHT22;2451;49.970;9.068;2024-02-21T10:12:53;11.30;99.90
4874;DHT22;2451;49.970;9.068;2024-02-21T10:15:24;11.30;99.90
4874;DHT22;2451;49.970;9.068;2024-02-21T10:17:58;11.40;99.90
4874;DHT22;2451;49.970;9.068;2024-02-21T10:20:24;11.40;99.90
4874;DHT22;2451;49.970;9.068;2024-02-21T10:23:00;11.20;99.90
4874;DHT22;2451;49.970;9.068;2024-02-21T10:25:27;11.40;99.90
4874;DHT22;2451;49.970;9.068;2024-02-21T10:27:53;11.60;99.90
4874;DHT22;2451;49.970;9.068;2024-02-21T10:30:19;11.90;99.90
4874;DHT22;2451;49.970;9.068;2024-02-21T10:32:53;12.00;99.90
4874;DHT22;2451;49.970;9.068;2024-02-21T10:35:32;11.70;99.90
4874;DHT22;2451;49.970;9.068;2024-02-21T10:38:00;11.80;99.90
4874;DHT22;2451;49.970;9.068;2024-02-21T10:40:29;11.80;99.90
4874;DHT22;2451;49.970;9.068;2024-02-21T10:43:00;11.80;99.90
4874;DHT22;2451;49.970;9.068;2024-02-21T10:45:36;11.70;99.90
4874;DHT22;2451;49.970;9.068;2024-02-21T10:48:11;11.30;99.90
4874;DHT22;2451;49.970;9.068;2024-02-21T10:50:56;11.40;99.90
4874;DHT22;2451;49.970;9.068;2024-02-21T10:56:24;11.30;99.90
4874;DHT22;2451;49.970;9.068;2024-02-21T10:58:52;11.30;99.90
4874;DHT22;2451;49.970;9.068;2024-02-21T11:01:18;11.30;99.90
4874;DHT22;2451;49.970;9.068;2024-02-21T11:03:46;11.50;99.90
4874;DHT22;2451;49.970;9.068;2024-02-21T11:06:12;11.50;99.90
4874;DHT22;2451;49.970;9.068;2024-02-21T11:08:39;11.60;99.90
4874;DHT22;2451;49.970;9.068;2024-02-21T11:11:05;11.80;99.90
4874;DHT22;2451;49.970;9.068;2024-02-21T11:13:31;11.80;99.90
4874;DHT22;2451;49.970;9.068;2024-02-21T11:16:10;11.90;99.90
4874;DHT22;2451;49.970;9.068;2024-02-21T11:18:39;11.90;99.90
4874;DHT22;2451;49.970;9.068;2024-02-21T11:21:05;12.10;99.90
4874;DHT22;2451;49.970;9.068;2024-02-21T11:23:31;12.30;99.90
4874;DHT22;2451;49.970;9.068;2024-02-21T11:26:09;12.20;99.90
4874;DHT22;2451;49.970;9.068;2024-02-21T11:28:36;12.10;99.90
4874;DHT22;2451;49.970;9.068;2024-02-21T11:31:12;12.10;99.90
4874;DHT22;2451;49.970;9.068;2024-02-21T11:33:42;11.90;99.90
4874;DHT22;2451;49.970;9.068;2024-02-21T11:36:11;11.90;99.90
4874;DHT22;2451;49.970;9.068;2024-02-21T11:38:37;11.60;99.90
4874;DHT22;2451;49.970;9.068;2024-02-21T11:41:02;11.60;99.90
4874;DHT22;2451;49.970;9.068;2024-02-21T11:43:28;11.50;99.90
4874;DHT22;2451;49.970;9.068;2024-02-21T11:46:03;11.50;99.90
4874;DHT22;2451;49.970;9.068;2024-02-21T11:48:29;11.60;99.90
4874;DHT22;2451;49.970;9.068;2024-02-21T11:50:56;11.70;99.90
4874;DHT22;2451;49.970;9.068;2024-02-21T11:53:22;11.80;99.90
4874;DHT22;2451;49.970;9.068;2024-02-21T11:55:47;11.90;99.90
4874;DHT22;2451;49.970;9.068;2024-02-21T11:58:13;11.90;99.90
4874;DHT22;2451;49.970;9.068;2024-02-21T12:00:38;11.70;99.90
4874;DHT22;2451;49.970;9.068;2024-02-21T12:03:05;11.70;99.90
4874;DHT22;2451;49.970;9.068;2024-02-21T12:05:31;11.80;99.90
4874;DHT22;2451;49.970;9.068;2024-02-21T12:07:57;11.90;99.90
4874;DHT22;2451;49.970;9.068;2024-02-21T12:10:24;11.90;99.90
4874;DHT22;2451;49.970;9.068;2024-02-21T12:12:51;12.00;99.90
4874;DHT22;2451;49.970;9.068;2024-02-21T12:15:18;12.10;99.90
4874;DHT22;2451;49.970;9.068;2024-02-21T12:17:44;12.20;99.90
4874;DHT22;2451;49.970;9.068;2024-02-21T12:20:10;12.20;99.90
4874;DHT22;2451;49.970;9.068;2024-02-21T12:22:41;12.30;99.90
4874;DHT22;2451;49.970;9.068;2024-02-21T12:25:16;12.30;99.90
4874;DHT22;2451;49.970;9.068;2024-02-21T12:27:46;12.10;99.90
4874;DHT22;2451;49.970;9.068;2024-02-21T12:30:12;12.00;99.90
4874;DHT22;2451;49.970;9.068;2024-02-21T12:32:37;11.90;99.90
4874;DHT22;2451;49.970;9.068;2024-02-21T12:35:03;12.00;99.90
4874;DHT22;2451;49.970;9.068;2024-02-21T12:37:29;11.90;99.90
4874;DHT22;2451;49.970;9.068;2024-02-21T12:39:55;12.00;99.90
4874;DHT22;2451;49.970;9.068;2024-02-21T12:42:20;12.00;99.90
4874;DHT22;2451;49.970;9.068;2024-02-21T12:44:46;11.90;99.90
4874;DHT22;2451;49.970;9.068;2024-02-21T12:47:11;11.80;99.90
4874;DHT22;2451;49.970;9.068;2024-02-21T12:49:37;11.80;99.90
4874;DHT22;2451;49.970;9.068;2024-02-21T12:52:03;11.80;99.90
4874;DHT22;2451;49.970;9.068;2024-02-21T12:54:29;11.90;99.90
4874;DHT22;2451;49.970;9.068;2024-02-21T12:56:55;11.80;99.90
4874;DHT22;2451;49.970;9.068;2024-02-21T12:59:21;11.80;99.90
4874;DHT22;2451;49.970;9.068;2024-02-21T13:01:47;11.90;99.90
4874;DHT22;2451;49.970;9.068;2024-02-21T13:04:12;12.10;99.90
4874;DHT22;2451;49.970;9.068;2024-02-21T13:06:38;12.20;99.90
4874;DHT22;2451;49.970;9.068;2024-02-21T13:09:03;12.20;99.90
4874;DHT22;2451;49.970;9.068;2024-02-21T13:11:33;12.30;99.90
4874;DHT22;2451;49.970;9.068;2024-02-21T13:13:59;12.30;99.90
4874;DHT22;2451;49.970;9.068;2024-02-21T13:16:24;12.40;99.90
4874;DHT22;2451;49.970;9.068;2024-02-21T13:18:51;12.20;99.90
4874;DHT22;2451;49.970;9.068;2024-02-21T13:21:17;12.20;99.90
4874;DHT22;2451;49.970;9.068;2024-02-21T13:23:42;12.20;99.90
4874;DHT22;2451;49.970;9.068;2024-02-21T13:26:09;12.20;99.90
4874;DHT22;2451;49.970;9.068;2024-02-21T13:28:35;12.20;99.90
4874;DHT22;2451;49.970;9.068;2024-02-21T13:31:01;12.20;99.90
4874;DHT22;2451;49.970;9.068;2024-02-21T13:33:26;12.10;99.90
4874;DHT22;2451;49.970;9.068;2024-02-21T13:35:53;12.10;99.90
4874;DHT22;2451;49.970;9.068;2024-02-21T13:38:19;12.00;99.90
4874;DHT22;2451;49.970;9.068;2024-02-21T13:40:44;11.90;99.90
4874;DHT22;2451;49.970;9.068;2024-02-21T13:43:10;11.90;99.90
4874;DHT22;2451;49.970;9.068;2024-02-21T13:45:36;11.80;99.90
4874;DHT22;2451;49.970;9.068;2024-02-21T13:48:02;11.70;99.90
4874;DHT22;2451;49.970;9.068;2024-02-21T13:50:30;11.70;99.90
4874;DHT22;2451;49.970;9.068;2024-02-21T13:53:07;11.70;99.90
4874;DHT22;2451;49.970;9.068;2024-02-21T13:55:34;11.50;99.90
4874;DHT22;2451;49.970;9.068;2024-02-21T13:58:00;11.50;99.90
4874;DHT22;2451;49.970;9.068;2024-02-21T14:00:26;11.50;99.90
4874;DHT22;2451;49.970;9.068;2024-02-21T14:02:52;11.60;99.90
4874;DHT22;2451;49.970;9.068;2024-02-21T14:05:19;11.60;99.90
4874;DHT22;2451;49.970;9.068;2024-02-21T14:07:45;11.60;99.90
4874;DHT22;2451;49.970;9.068;2024-02-21T14:10:11;11.70;99.90
4874;DHT22;2451;49.970;9.068;2024-02-21T14:12:36;11.80;99.90
4874;DHT22;2451;49.970;9.068;2024-02-21T14:15:03;11.80;99.90
4874;DHT22;2451;49.970;9.068;2024-02-21T14:17:29;11.90;99.90
4874;DHT22;2451;49.970;9.068;2024-02-21T14:19:54;12.00;99.90
4874;DHT22;2451;49.970;9.068;2024-02-21T14:22:20;12.10;99.90
4874;DHT22;2451;49.970;9.068;2024-02-21T14:24:45;12.10;99.90
4874;DHT22;2451;49.970;9.068;2024-02-21T14:27:11;12.10;99.90
4874;DHT22;2451;49.970;9.068;2024-02-21T14:29:37;12.20;99.90
4874;DHT22;2451;49.970;9.068;2024-02-21T14:32:03;12.10;99.90
4874;DHT22;2451;49.970;9.068;2024-02-21T14:34:29;12.10;99.90
4874;DHT22;2451;49.970;9.068;2024-02-21T14:36:54;12.10;99.90
4874;DHT22;2451;49.970;9.068;2024-02-21T14:39:20;12.10;99.90
4874;DHT22;2451;49.970;9.068;2024-02-21T14:41:45;12.10;99.90
4874;DHT22;2451;49.970;9.068;2024-02-21T14:44:11;12.10;99.90
4874;DHT22;2451;49.970;9.068;2024-02-21T14:46:37;12.10;99.90
4874;DHT22;2451;49.970;9.068;2024-02-21T14:49:03;12.00;99.90
4874;DHT22;2451;49.970;9.068;2024-02-21T14:51:29;11.90;99.90
4874;DHT22;2451;49.970;9.068;2024-02-21T14:53:56;11.90;99.90
4874;DHT22;2451;49.970;9.068;2024-02-21T14:56:21;11.80;99.90
4874;DHT22;2451;49.970;9.068;2024-02-21T14:58:48;11.70;99.90
4874;DHT22;2451;49.970;9.068;2024-02-21T15:01:14;11.60;99.90
4874;DHT22;2451;49.970;9.068;2024-02-21T15:03:39;11.50;99.90
4874;DHT22;2451;49.970;9.068;2024-02-21T15:06:05;11.50;99.90
4874;DHT22;2451;49.970;9.068;2024-02-21T15:08:30;11.50;99.90
4874;DHT22;2451;49.970;9.068;2024-02-21T15:10:56;11.40;99.90
4874;DHT22;2451;49.970;9.068;2024-02-21T15:13:21;11.40;99.90
4874;DHT22;2451;49.970;9.068;2024-02-21T15:15:48;11.40;99.90
4874;DHT22;2451;49.970;9.068;2024-02-21T15:18:17;11.50;99.90
4874;DHT22;2451;49.970;9.068;2024-02-21T15:20:42;11.50;99.90
4874;DHT22;2451;49.970;9.068;2024-02-21T15:23:08;11.50;99.90
4874;DHT22;2451;49.970;9.068;2024-02-21T15:25:33;11.50;99.90
4874;DHT22;2451;49.970;9.068;2024-02-21T15:27:59;11.50;99.90
4874;DHT22;2451;49.970;9.068;2024-02-21T15:30:25;11.40;99.90
4874;DHT22;2451;49.970;9.068;2024-02-21T15:32:50;11.40;99.90
4874;DHT22;2451;49.970;9.068;2024-02-21T15:35:16;11.40;99.90
4874;DHT22;2451;49.970;9.068;2024-02-21T15:37:41;11.30;99.90
4874;DHT22;2451;49.970;9.068;2024-02-21T15:40:07;11.30;99.90
4874;DHT22;2451;49.970;9.068;2024-02-21T15:42:33;11.40;99.90
4874;DHT22;2451;49.970;9.068;2024-02-21T15:44:59;11.30;99.90
4874;DHT22;2451;49.970;9.068;2024-02-21T15:47:30;11.30;99.90
4874;DHT22;2451;49.970;9.068;2024-02-21T15:49:57;11.30;99.90
4874;DHT22;2451;49.970;9.068;2024-02-21T15:52:23;11.30;99.90
4874;DHT22;2451;49.970;9.068;2024-02-21T15:54:49;11.20;99.90
4874;DHT22;2451;49.970;9.068;2024-02-21T15:57:14;11.20;99.90
4874;DHT22;2451;49.970;9.068;2024-02-21T15:59:40;11.20;99.90
4874;DHT22;2451;49.970;9.068;2024-02-21T16:02:06;11.20;99.90
4874;DHT22;2451;49.970;9.068;2024-02-21T16:04:31;11.10;99.90
4874;DHT22;2451;49.970;9.068;2024-02-21T16:07:00;11.10;99.90
4874;DHT22;2451;49.970;9.068;2024-02-21T16:09:29;11.00;99.90
4874;DHT22;2451;49.970;9.068;2024-02-21T16:11:58;11.00;99.90